Stolt Shearwater — ZCRD9 — position and weather

sailwx.info

Track history (hours):
 
Tides and Currents Weather Stations Pressure Air Temp Water Temp Dewpoint Dewpoint Depression Visibility Wind Speed Wind Dir Waves Ship Positions

Stolt Shearwater

Last reported at 2016-Sep-01 01:33 UTC. Time now 2016-Sep-01 01:53 UTC.
Position N 51°21' E 001°50'.

Length 96 m; draft 6.3 m.

Type: Ship (hazmat cat D). MMSI: 319402000.

Date/timePositionNaut miles runAvg speedWind from/ knotsBaromVisibWave heightAir tempDewpointWater temp
2016-Sep-01 01:33N 51°21' E 001°50'8 8.3
2016-Sep-01 00:33N 51°28' E 001°56'10 9.4
2016-Aug-31 23:33N 51°35' E 002°07'1110.4
2016-Aug-31 22:29N 51°43' E 002°19'1111.5
2016-Aug-31 21:33N 51°52' E 002°30'6111.9
2016-Aug-31 16:24N 52°48' E 001°51'910.4
2016-Aug-31 15:33N 52°54' E 001°40'10 9.6
2016-Aug-31 14:33N 53°01' E 001°29'9 9.0
2016-Aug-31 13:33N 53°07' E 001°19'9 8.9
2016-Aug-31 12:30N 53°15' E 001°09'9 8.9
2016-Aug-31 11:32N 53°21' E 000°59'19 9.2
2016-Aug-31 09:27N 53°30' E 000°31'9 9.7
2016-Aug-31 08:33N 53°33' E 000°17'1212.0
2016-Aug-31 07:33N 53°36' W 000°02'1110.6
2016-Aug-31 06:34N 53°43' W 000°15'0 0.2
2016-Aug-31 05:33N 53°44' W 000°15'0 0.0
2016-Aug-31 04:33N 53°44' W 000°15'0 0.0
2016-Aug-31 03:30N 53°44' W 000°15'0 0.0
2016-Aug-31 02:33N 53°44' W 000°15'0 0.0
2016-Aug-31 01:33N 53°44' W 000°15'0 0.0
2016-Aug-31 00:33N 53°44' W 000°15'0 0.0
2016-Aug-30 23:33N 53°44' W 000°15'0 0.0
2016-Aug-30 22:31N 53°44' W 000°15'0 0.0
2016-Aug-30 21:33N 53°44' W 000°15'0 0.0
2016-Aug-30 20:33N 53°44' W 000°15'0 0.0
2016-Aug-30 19:27N 53°44' W 000°15'0 0.0
2016-Aug-30 18:33N 53°44' W 000°15'0 0.0
2016-Aug-30 17:33N 53°44' W 000°15'0 0.0
2016-Aug-30 16:33N 53°44' W 000°15'0 0.0
2016-Aug-30 15:33N 53°44' W 000°15'0 0.0
2016-Aug-30 14:27N 53°44' W 000°15'0 0.0
2016-Aug-30 13:30N 53°44' W 000°15'0 0.0
2016-Aug-30 12:33N 53°44' W 000°15'0 0.0
2016-Aug-30 11:33N 53°44' W 000°15'0 0.0
2016-Aug-30 10:33N 53°44' W 000°15'0 0.0
2016-Aug-30 09:34N 53°44' W 000°15'0 0.0
2016-Aug-30 08:34N 53°44' W 000°15'0 0.0
2016-Aug-30 07:33N 53°44' W 000°15'0 0.0
2016-Aug-30 06:33N 53°44' W 000°15'0 0.0
2016-Aug-30 05:33N 53°44' W 000°15'0 0.1
2016-Aug-30 04:33N 53°43' W 000°15'10 9.6
2016-Aug-30 03:33N 53°37' W 000°04'1111.2
2016-Aug-30 02:34N 53°33' E 000°14'5 4.8
2016-Aug-30 01:33N 53°33' E 000°22'5 5.0
2016-Aug-30 00:27N 53°37' E 000°29'0 0.0
2016-Aug-29 23:27N 53°37' E 000°29'0 0.1
2016-Aug-29 22:27N 53°37' E 000°29'0 0.0
2016-Aug-29 21:27N 53°37' E 000°29'0 0.0
2016-Aug-29 20:31N 53°37' E 000°29'0 0.0
2016-Aug-29 19:33N 53°37' E 000°29'0 0.0
2016-Aug-29 18:15N 53°37' E 000°29'0 0.1
2016-Aug-29 17:33N 53°37' E 000°29'0 0.1
2016-Aug-29 16:06N 53°37' E 000°29'0 0.0
2016-Aug-29 15:06N 53°37' E 000°29'0 0.0
2016-Aug-29 13:21N 53°37' E 000°29'0 0.0
2016-Aug-29 10:27N 53°37' E 000°29'0 0.0
2016-Aug-29 09:24N 53°37' E 000°29'0 0.0
2016-Aug-29 07:27N 53°37' E 000°29'0 0.0
2016-Aug-29 06:27N 53°37' E 000°29'0 0.1
2016-Aug-29 05:30N 53°37' E 000°29'0 0.1
2016-Aug-29 04:33N 53°37' E 000°29'0 0.0
2016-Aug-29 02:18N 53°37' E 000°29'1 0.7
2016-Aug-29 00:25N 53°36' E 000°28'8 9.8
2016-Aug-28 23:33N 53°32' E 000°15'9 9.4
2016-Aug-28 22:33N 53°35' E 000°00'10 9.8
2016-Aug-28 21:33N 53°41' W 000°13'3 2.5
2016-Aug-28 20:31N 53°44' W 000°15'0 0.0
2016-Aug-28 19:31N 53°44' W 000°15'0 0.0
2016-Aug-28 18:33N 53°44' W 000°15'2 1.6
2016-Aug-28 17:33N 53°42' W 000°14'9 8.8
2016-Aug-28 16:33N 53°36' W 000°03'10 9.8
2016-Aug-28 15:33N 53°33' E 000°13'10 9.6
2016-Aug-28 14:33N 53°31' E 000°29'16 8.1
2016-Aug-28 12:33N 53°23' E 000°52'9 8.7
2016-Aug-28 11:33N 53°18' E 001°04'18 9.1
2016-Aug-28 09:33N 53°04' E 001°24'8 8.4
2016-Aug-28 08:33N 52°58' E 001°34'9 9.1
2016-Aug-28 07:33N 52°52' E 001°44'6110.0
2016-Aug-28 01:29N 52°02' E 002°42'1412.4
2016-Aug-28 00:21N 51°51' E 002°56'1012.2
2016-Aug-27 23:33N 51°45' E 003°09'1111.3
2016-Aug-27 22:33N 51°38' E 003°22'1312.5
2016-Aug-27 21:34N 51°27' E 003°33'8 8.3
2016-Aug-27 20:34N 51°23' E 003°44'9 8.5
2016-Aug-27 19:33N 51°24' E 003°57'7 6.6
2016-Aug-27 18:33N 51°22' E 004°07'8 7.9
2016-Aug-27 17:33N 51°18' E 004°18'2 2.0
2016-Aug-27 16:29N 51°16' E 004°20'1 1.4
2016-Aug-27 15:31N 51°18' E 004°20'0 0.0
2016-Aug-27 14:16N 51°18' E 004°20'0 0.0
2016-Aug-27 13:13N 51°18' E 004°20'0 0.0
2016-Aug-27 12:28N 51°18' E 004°20'0 0.0
2016-Aug-27 11:07N 51°18' E 004°20'0 0.0
2016-Aug-27 10:28N 51°18' E 004°20'0 0.0
2016-Aug-27 09:07N 51°18' E 004°20'0 0.0
2016-Aug-27 08:31N 51°18' E 004°20'0 0.0
2016-Aug-27 07:13N 51°18' E 004°20'0 0.0
2016-Aug-27 06:25N 51°18' E 004°20'0 0.0
2016-Aug-26 22:28N 51°18' E 004°20'0 0.0
2016-Aug-26 14:25N 51°18' E 004°20'0 0.0
2016-Aug-26 13:33N 51°18' E 004°20'0 0.1
2016-Aug-26 12:33N 51°18' E 004°20'1 1.0
2016-Aug-26 11:33N 51°17' E 004°20'3 2.7
2016-Aug-26 10:33N 51°18' E 004°16'7 6.6
2016-Aug-26 09:33N 51°22' E 004°08'7 6.7
2016-Aug-26 08:33N 51°24' E 003°57'9 9.2
2016-Aug-26 07:34N 51°23' E 003°43'1010.2
2016-Aug-26 06:33N 51°25' E 003°27'2512.5
2016-Aug-26 04:33N 51°22' E 002°47'1010.4
2016-Aug-26 03:33N 51°22' E 002°30'1010.3
2016-Aug-26 02:33N 51°17' E 002°15'10 9.7
2016-Aug-26 01:33N 51°13' E 002°02'9 9.4
2016-Aug-26 00:33N 51°08' E 001°48'9 9.0
2016-Aug-25 23:33N 51°02' E 001°38'1010.0
2016-Aug-25 22:33N 50°55' E 001°28'1110.6
2016-Aug-25 21:33N 50°45' E 001°22'1110.8
2016-Aug-25 20:33N 50°37' E 001°10'1111.2
2016-Aug-25 19:33N 50°30' E 000°56'1310.9
2016-Aug-25 18:19N 50°27' E 000°36'911.0
2016-Aug-25 17:30N 50°24' E 000°22'1111.3
2016-Aug-25 16:33N 50°21' E 000°06'1211.9
2016-Aug-25 15:33N 50°18' W 000°12'1412.7
2016-Aug-25 14:25N 50°14' W 000°33'1213.5
2016-Aug-25 13:32N 50°10' W 000°51'1414.0
2016-Aug-25 12:33N 50°07' W 001°12'1413.8
2016-Aug-25 11:33N 50°03' W 001°33'1413.0
2016-Aug-25 10:30N 49°60' W 001°54'1411.6
2016-Aug-25 09:18N 49°55' W 002°14'810.4
2016-Aug-25 08:33N 49°54' W 002°26'10 9.9
2016-Aug-25 07:29N 49°51' W 002°41'9 9.6
2016-Aug-25 06:32N 49°48' W 002°55'19 9.7
2016-Aug-25 04:33N 49°39' W 003°21'1010.2
2016-Aug-25 03:34N 49°34' W 003°35'1110.3
2016-Aug-25 02:27N 49°28' W 003°50'1110.5
2016-Aug-25 01:26N 49°23' W 004°04'2211.1
2016-Aug-24 23:26N 49°12' W 004°34'1311.8
2016-Aug-24 22:21N 49°05' W 004°50'1012.3
2016-Aug-24 21:34N 49°00' W 005°03'1212.2
2016-Aug-24 20:33N 48°54' W 005°19'1212.4
2016-Aug-24 19:33N 48°46' W 005°34'2412.0
2016-Aug-24 17:33N 48°26' W 005°54'2211.2
2016-Aug-24 15:34N 48°07' W 006°11'2010.2
2016-Aug-24 13:33N 47°49' W 006°25'9 9.5
2016-Aug-24 12:34N 47°40' W 006°31'15210.9
2016-Aug-23 22:31N 45°27' W 008°18'1611.3
2016-Aug-23 21:05N 45°12' W 008°28'611.7
2016-Aug-23 20:33N 45°06' W 008°32'35410.7
2016-Aug-22 11:33N 39°18' W 009°57'10 9.7
2016-Aug-22 10:33N 39°08' W 009°57'19 9.5
2016-Aug-22 08:32N 38°49' W 009°57'1010.2
2016-Aug-22 07:32N 38°39' W 009°56'1010.1
2016-Aug-22 06:33N 38°29' W 009°54'1010.1
2016-Aug-22 05:33N 38°20' W 009°50'1010.1
2016-Aug-22 04:33N 38°10' W 009°48'1010.0
2016-Aug-22 03:33N 37°60' W 009°44'10 9.9
2016-Aug-22 02:33N 37°50' W 009°42'  
Track history (hours):
 
Tides and Currents Weather Stations Pressure Air Temp Water Temp Dewpoint Dewpoint Depression Visibility Wind Speed Wind Dir Waves Ship Positions

Stolt Shearwater

Last reported at 2016-Sep-01 01:33 UTC. Time now 2016-Sep-01 01:53 UTC.
Position N 51°21' E 001°50'.

Length 96 m; draft 6.3 m.

Type: Ship (hazmat cat D). MMSI: 319402000.

Date/timePositionNaut miles runAvg speedWind from/ knotsBaromVisibWave heightAir tempDewpointWater temp
2016-Sep-01 01:33N 51°21' E 001°50'8 8.3
2016-Sep-01 00:33N 51°28' E 001°56'10 9.4
2016-Aug-31 23:33N 51°35' E 002°07'1110.4
2016-Aug-31 22:29N 51°43' E 002°19'1111.5
2016-Aug-31 21:33N 51°52' E 002°30'6111.9
2016-Aug-31 16:24N 52°48' E 001°51'910.4
2016-Aug-31 15:33N 52°54' E 001°40'10 9.6
2016-Aug-31 14:33N 53°01' E 001°29'9 9.0
2016-Aug-31 13:33N 53°07' E 001°19'9 8.9
2016-Aug-31 12:30N 53°15' E 001°09'9 8.9
2016-Aug-31 11:32N 53°21' E 000°59'19 9.2
2016-Aug-31 09:27N 53°30' E 000°31'9 9.7
2016-Aug-31 08:33N 53°33' E 000°17'1212.0
2016-Aug-31 07:33N 53°36' W 000°02'1110.6
2016-Aug-31 06:34N 53°43' W 000°15'0 0.2
2016-Aug-31 05:33N 53°44' W 000°15'0 0.0
2016-Aug-31 04:33N 53°44' W 000°15'0 0.0
2016-Aug-31 03:30N 53°44' W 000°15'0 0.0
2016-Aug-31 02:33N 53°44' W 000°15'0 0.0
2016-Aug-31 01:33N 53°44' W 000°15'0 0.0
2016-Aug-31 00:33N 53°44' W 000°15'0 0.0
2016-Aug-30 23:33N 53°44' W 000°15'0 0.0
2016-Aug-30 22:31N 53°44' W 000°15'0 0.0
2016-Aug-30 21:33N 53°44' W 000°15'0 0.0
2016-Aug-30 20:33N 53°44' W 000°15'0 0.0
2016-Aug-30 19:27N 53°44' W 000°15'0 0.0
2016-Aug-30 18:33N 53°44' W 000°15'0 0.0
2016-Aug-30 17:33N 53°44' W 000°15'0 0.0
2016-Aug-30 16:33N 53°44' W 000°15'0 0.0
2016-Aug-30 15:33N 53°44' W 000°15'0 0.0
2016-Aug-30 14:27N 53°44' W 000°15'0 0.0
2016-Aug-30 13:30N 53°44' W 000°15'0 0.0
2016-Aug-30 12:33N 53°44' W 000°15'0 0.0
2016-Aug-30 11:33N 53°44' W 000°15'0 0.0
2016-Aug-30 10:33N 53°44' W 000°15'0 0.0
2016-Aug-30 09:34N 53°44' W 000°15'0 0.0
2016-Aug-30 08:34N 53°44' W 000°15'0 0.0
2016-Aug-30 07:33N 53°44' W 000°15'0 0.0
2016-Aug-30 06:33N 53°44' W 000°15'0 0.0
2016-Aug-30 05:33N 53°44' W 000°15'0 0.1
2016-Aug-30 04:33N 53°43' W 000°15'10 9.6
2016-Aug-30 03:33N 53°37' W 000°04'1111.2
2016-Aug-30 02:34N 53°33' E 000°14'5 4.8
2016-Aug-30 01:33N 53°33' E 000°22'5 5.0
2016-Aug-30 00:27N 53°37' E 000°29'0 0.0
2016-Aug-29 23:27N 53°37' E 000°29'0 0.1
2016-Aug-29 22:27N 53°37' E 000°29'0 0.0
2016-Aug-29 21:27N 53°37' E 000°29'0 0.0
2016-Aug-29 20:31N 53°37' E 000°29'0 0.0
2016-Aug-29 19:33N 53°37' E 000°29'0 0.0
2016-Aug-29 18:15N 53°37' E 000°29'0 0.1
2016-Aug-29 17:33N 53°37' E 000°29'0 0.1
2016-Aug-29 16:06N 53°37' E 000°29'0 0.0
2016-Aug-29 15:06N 53°37' E 000°29'0 0.0
2016-Aug-29 13:21N 53°37' E 000°29'0 0.0
2016-Aug-29 10:27N 53°37' E 000°29'0 0.0
2016-Aug-29 09:24N 53°37' E 000°29'0 0.0
2016-Aug-29 07:27N 53°37' E 000°29'0 0.0
2016-Aug-29 06:27N 53°37' E 000°29'0 0.1
2016-Aug-29 05:30N 53°37' E 000°29'0 0.1
2016-Aug-29 04:33N 53°37' E 000°29'0 0.0
2016-Aug-29 02:18N 53°37' E 000°29'1 0.7
2016-Aug-29 00:25N 53°36' E 000°28'8 9.8
2016-Aug-28 23:33N 53°32' E 000°15'9 9.4
2016-Aug-28 22:33N 53°35' E 000°00'10 9.8
2016-Aug-28 21:33N 53°41' W 000°13'3 2.5
2016-Aug-28 20:31N 53°44' W 000°15'0 0.0
2016-Aug-28 19:31N 53°44' W 000°15'0 0.0
2016-Aug-28 18:33N 53°44' W 000°15'2 1.6
2016-Aug-28 17:33N 53°42' W 000°14'9 8.8
2016-Aug-28 16:33N 53°36' W 000°03'10 9.8
2016-Aug-28 15:33N 53°33' E 000°13'10 9.6
2016-Aug-28 14:33N 53°31' E 000°29'16 8.1
2016-Aug-28 12:33N 53°23' E 000°52'9 8.7
2016-Aug-28 11:33N 53°18' E 001°04'18 9.1
2016-Aug-28 09:33N 53°04' E 001°24'8 8.4
2016-Aug-28 08:33N 52°58' E 001°34'9 9.1
2016-Aug-28 07:33N 52°52' E 001°44'6110.0
2016-Aug-28 01:29N 52°02' E 002°42'1412.4
2016-Aug-28 00:21N 51°51' E 002°56'1012.2
2016-Aug-27 23:33N 51°45' E 003°09'1111.3
2016-Aug-27 22:33N 51°38' E 003°22'1312.5
2016-Aug-27 21:34N 51°27' E 003°33'8 8.3
2016-Aug-27 20:34N 51°23' E 003°44'9 8.5
2016-Aug-27 19:33N 51°24' E 003°57'7 6.6
2016-Aug-27 18:33N 51°22' E 004°07'8 7.9
2016-Aug-27 17:33N 51°18' E 004°18'2 2.0
2016-Aug-27 16:29N 51°16' E 004°20'1 1.4
2016-Aug-27 15:31N 51°18' E 004°20'0 0.0
2016-Aug-27 14:16N 51°18' E 004°20'0 0.0
2016-Aug-27 13:13N 51°18' E 004°20'0 0.0
2016-Aug-27 12:28N 51°18' E 004°20'0 0.0
2016-Aug-27 11:07N 51°18' E 004°20'0 0.0
2016-Aug-27 10:28N 51°18' E 004°20'0 0.0
2016-Aug-27 09:07N 51°18' E 004°20'0 0.0
2016-Aug-27 08:31N 51°18' E 004°20'0 0.0
2016-Aug-27 07:13N 51°18' E 004°20'0 0.0
2016-Aug-27 06:25N 51°18' E 004°20'0 0.0
2016-Aug-26 22:28N 51°18' E 004°20'0 0.0
2016-Aug-26 14:25N 51°18' E 004°20'0 0.0
2016-Aug-26 13:33N 51°18' E 004°20'0 0.1
2016-Aug-26 12:33N 51°18' E 004°20'1 1.0
2016-Aug-26 11:33N 51°17' E 004°20'3 2.7
2016-Aug-26 10:33N 51°18' E 004°16'7 6.6
2016-Aug-26 09:33N 51°22' E 004°08'7 6.7
2016-Aug-26 08:33N 51°24' E 003°57'9 9.2
2016-Aug-26 07:34N 51°23' E 003°43'1010.2
2016-Aug-26 06:33N 51°25' E 003°27'2512.5
2016-Aug-26 04:33N 51°22' E 002°47'1010.4
2016-Aug-26 03:33N 51°22' E 002°30'1010.3
2016-Aug-26 02:33N 51°17' E 002°15'10 9.7
2016-Aug-26 01:33N 51°13' E 002°02'9 9.4
2016-Aug-26 00:33N 51°08' E 001°48'9 9.0
2016-Aug-25 23:33N 51°02' E 001°38'1010.0
2016-Aug-25 22:33N 50°55' E 001°28'1110.6
2016-Aug-25 21:33N 50°45' E 001°22'1110.8
2016-Aug-25 20:33N 50°37' E 001°10'1111.2
2016-Aug-25 19:33N 50°30' E 000°56'1310.9
2016-Aug-25 18:19N 50°27' E 000°36'911.0
2016-Aug-25 17:30N 50°24' E 000°22'1111.3
2016-Aug-25 16:33N 50°21' E 000°06'1211.9
2016-Aug-25 15:33N 50°18' W 000°12'1412.7
2016-Aug-25 14:25N 50°14' W 000°33'1213.5
2016-Aug-25 13:32N 50°10' W 000°51'1414.0
2016-Aug-25 12:33N 50°07' W 001°12'1413.8
2016-Aug-25 11:33N 50°03' W 001°33'1413.0
2016-Aug-25 10:30N 49°60' W 001°54'1411.6
2016-Aug-25 09:18N 49°55' W 002°14'810.4
2016-Aug-25 08:33N 49°54' W 002°26'10 9.9
2016-Aug-25 07:29N 49°51' W 002°41'9 9.6
2016-Aug-25 06:32N 49°48' W 002°55'19 9.7
2016-Aug-25 04:33N 49°39' W 003°21'1010.2
2016-Aug-25 03:34N 49°34' W 003°35'1110.3
2016-Aug-25 02:27N 49°28' W 003°50'1110.5
2016-Aug-25 01:26N 49°23' W 004°04'2211.1
2016-Aug-24 23:26N 49°12' W 004°34'1311.8
2016-Aug-24 22:21N 49°05' W 004°50'1012.3
2016-Aug-24 21:34N 49°00' W 005°03'1212.2
2016-Aug-24 20:33N 48°54' W 005°19'1212.4
2016-Aug-24 19:33N 48°46' W 005°34'2412.0
2016-Aug-24 17:33N 48°26' W 005°54'2211.2
2016-Aug-24 15:34N 48°07' W 006°11'2010.2
2016-Aug-24 13:33N 47°49' W 006°25'9 9.5
2016-Aug-24 12:34N 47°40' W 006°31'15210.9
2016-Aug-23 22:31N 45°27' W 008°18'1611.3
2016-Aug-23 21:05N 45°12' W 008°28'611.7
2016-Aug-23 20:33N 45°06' W 008°32'35410.7
2016-Aug-22 11:33N 39°18' W 009°57'10 9.7
2016-Aug-22 10:33N 39°08' W 009°57'19 9.5
2016-Aug-22 08:32N 38°49' W 009°57'1010.2
2016-Aug-22 07:32N 38°39' W 009°56'1010.1
2016-Aug-22 06:33N 38°29' W 009°54'1010.1
2016-Aug-22 05:33N 38°20' W 009°50'1010.1
2016-Aug-22 04:33N 38°10' W 009°48'1010.0
2016-Aug-22 03:33N 37°60' W 009°44'10 9.9
2016-Aug-22 02:33N 37°50' W 009°42'  

Dump ship's entire track history